createdAt,value
2022-09-11T00:01:43.283Z,19.96
2022-09-11T00:04:10.895Z,20.09
2022-09-11T00:06:41.448Z,20.04
2022-09-11T00:09:10.995Z,20.11
2022-09-11T00:11:42.786Z,20.16
2022-09-11T00:14:13.811Z,20.16
2022-09-11T00:16:45.558Z,20.13
2022-09-11T00:19:21.832Z,20.19
2022-09-11T00:21:51.878Z,20.35
2022-09-11T00:24:19.778Z,20.40
2022-09-11T00:26:47.840Z,20.42
2022-09-11T00:29:14.778Z,20.35
2022-09-11T00:31:44.302Z,20.48
2022-09-11T00:34:13.337Z,20.46
2022-09-11T00:36:41.659Z,20.44
2022-09-11T00:39:10.742Z,20.37
2022-09-11T00:41:42.146Z,20.26
2022-09-11T00:44:28.991Z,20.41
2022-09-11T00:47:01.702Z,20.18
2022-09-11T00:49:38.599Z,20.15
2022-09-11T00:52:28.145Z,20.05
2022-09-11T00:55:14.581Z,20.21
2022-09-11T00:58:00.634Z,20.35
2022-09-11T01:00:30.249Z,20.32
2022-09-11T01:02:58.213Z,20.38
2022-09-11T01:05:28.640Z,20.39
2022-09-11T01:07:56.712Z,20.40
2022-09-11T01:10:58.272Z,20.38
2022-09-11T01:13:33.871Z,20.39
2022-09-11T01:16:17.223Z,20.27
2022-09-11T01:18:58.334Z,20.14
2022-09-11T01:22:28.160Z,20.09
2022-09-11T01:25:47.297Z,20.13
2022-09-11T01:28:23.666Z,20.21
2022-09-11T01:31:07.014Z,20.22
2022-09-11T01:33:46.389Z,20.19
2022-09-11T01:36:21.553Z,20.16
2022-09-11T01:39:04.507Z,20.20
2022-09-11T01:41:56.746Z,20.10
2022-09-11T01:44:33.137Z,20.21
2022-09-11T01:47:02.568Z,20.17
2022-09-11T01:49:41.804Z,20.13
2022-09-11T01:52:15.505Z,20.25
2022-09-11T01:54:51.268Z,20.25
2022-09-11T01:57:36.975Z,20.23
2022-09-11T02:00:10.941Z,20.31
2022-09-11T02:02:47.326Z,20.16
2022-09-11T02:05:23.084Z,20.14
2022-09-11T02:08:02.552Z,20.19
2022-09-11T02:10:45.465Z,20.21
2022-09-11T02:13:41.436Z,20.24
2022-09-11T02:17:18.430Z,20.15
2022-09-11T02:19:45.615Z,20.10
2022-09-11T02:22:12.810Z,20.12
2022-09-11T02:24:39.910Z,20.09
2022-09-11T02:27:16.967Z,20.10
2022-09-11T02:29:44.039Z,20.21
2022-09-11T02:32:11.619Z,20.24
2022-09-11T02:34:42.259Z,20.23
2022-09-11T02:37:41.084Z,20.14
2022-09-11T02:40:42.360Z,20.04
2022-09-11T02:44:07.961Z,20.02
2022-09-11T02:47:00.673Z,20.04
2022-09-11T02:50:00.165Z,20.06
2022-09-11T02:53:14.817Z,20.12
2022-09-11T02:56:32.300Z,20.06
2022-09-11T02:59:30.530Z,20.06
2022-09-11T03:01:59.718Z,19.99
2022-09-11T03:04:29.547Z,19.89
2022-09-11T03:06:58.718Z,19.96
2022-09-11T03:09:25.869Z,19.93
2022-09-11T03:11:53.045Z,19.99
2022-09-11T03:14:20.248Z,20.00
2022-09-11T03:16:51.773Z,20.03
2022-09-11T03:19:18.744Z,20.12
2022-09-11T03:21:45.764Z,20.11
2022-09-11T03:24:17.098Z,20.17
2022-09-11T03:26:44.156Z,20.17
2022-09-11T03:29:13.990Z,20.24
2022-09-11T03:31:40.961Z,20.10
2022-09-11T03:34:11.067Z,19.87
2022-09-11T03:36:37.978Z,19.93
2022-09-11T03:39:07.282Z,19.94
2022-09-11T03:41:36.303Z,19.96
2022-09-11T03:44:03.445Z,20.02
2022-09-11T03:46:31.189Z,20.05
2022-09-11T03:48:58.733Z,20.01
2022-09-11T03:51:26.508Z,20.06
2022-09-11T03:53:54.086Z,20.14
2022-09-11T03:56:21.145Z,20.17
2022-09-11T03:58:48.643Z,20.12
2022-09-11T04:01:19.456Z,20.17
2022-09-11T04:03:46.450Z,20.22
2022-09-11T04:06:14.027Z,20.28
2022-09-11T04:08:41.675Z,20.16
2022-09-11T04:11:11.617Z,20.13
2022-09-11T04:13:42.140Z,20.22
2022-09-11T04:16:15.011Z,20.21
2022-09-11T04:18:46.384Z,20.15
2022-09-11T04:21:16.923Z,20.05
2022-09-11T04:23:45.521Z,20.00
2022-09-11T04:26:18.862Z,19.98
2022-09-11T04:28:46.430Z,19.93
2022-09-11T04:31:16.131Z,20.02
2022-09-11T04:33:44.240Z,20.04
2022-09-11T04:36:15.201Z,20.07
2022-09-11T04:38:42.028Z,19.85
2022-09-11T04:41:09.760Z,20.01
2022-09-11T04:43:39.127Z,20.00
2022-09-11T04:46:16.990Z,19.79
2022-09-11T04:48:52.479Z,19.70
2022-09-11T04:51:32.204Z,19.70
2022-09-11T04:54:04.700Z,19.83
2022-09-11T04:56:37.752Z,19.79
2022-09-11T04:59:20.449Z,19.76
2022-09-11T05:01:49.549Z,19.71
2022-09-11T05:04:26.732Z,19.75
2022-09-11T05:06:56.683Z,19.80
2022-09-11T05:09:24.300Z,19.90
2022-09-11T05:11:51.870Z,19.85
2022-09-11T05:14:18.698Z,19.95
2022-09-11T05:16:48.171Z,19.97
2022-09-11T05:19:17.445Z,19.91
2022-09-11T05:21:48.262Z,19.75
2022-09-11T05:24:15.227Z,19.79
2022-09-11T05:26:42.456Z,19.85
2022-09-11T05:29:16.874Z,19.81
2022-09-11T05:31:44.090Z,19.65
2022-09-11T05:34:11.009Z,19.77
2022-09-11T05:36:38.088Z,19.51
2022-09-11T05:39:07.837Z,19.44
2022-09-11T05:44:19.285Z,19.62
2022-09-11T05:46:46.233Z,19.67
2022-09-11T05:49:13.353Z,19.60
2022-09-11T05:51:41.658Z,19.72
2022-09-11T05:54:08.913Z,19.50
2022-09-11T05:56:38.238Z,19.52
2022-09-11T05:59:14.228Z,19.45
2022-09-11T06:01:43.006Z,19.51
2022-09-11T06:04:12.469Z,19.52
2022-09-11T06:06:39.828Z,19.47
2022-09-11T06:09:10.227Z,19.40
2022-09-11T06:11:37.135Z,19.47
2022-09-11T06:14:09.079Z,19.55
2022-09-11T06:16:36.286Z,19.50
2022-09-11T06:19:05.671Z,19.52
2022-09-11T06:21:32.519Z,19.57
2022-09-11T06:23:59.460Z,19.65
2022-09-11T06:26:29.588Z,19.78
2022-09-11T06:28:57.378Z,19.50
2022-09-11T06:31:30.062Z,19.63
2022-09-11T06:33:59.706Z,19.76
2022-09-11T06:36:27.764Z,19.66
2022-09-11T06:38:58.312Z,19.45
2022-09-11T06:41:27.111Z,19.36
2022-09-11T06:43:54.252Z,19.39
2022-09-11T06:46:24.286Z,19.46
2022-09-11T06:48:55.022Z,19.53
2022-09-11T06:51:24.030Z,19.50
2022-09-11T06:54:02.218Z,19.48
2022-09-11T06:56:32.429Z,19.44
2022-09-11T06:59:01.883Z,19.35
2022-09-11T07:01:32.027Z,19.43
2022-09-11T07:03:59.161Z,19.09
2022-09-11T07:06:30.356Z,19.26
2022-09-11T07:09:03.783Z,19.19
2022-09-11T07:11:36.638Z,19.54
2022-09-11T07:14:06.316Z,19.67
2022-09-11T07:16:34.757Z,19.80
2022-09-11T07:19:04.774Z,19.87
2022-09-11T07:21:32.949Z,20.04
2022-09-11T07:24:00.468Z,19.82
2022-09-11T07:26:30.012Z,19.92
2022-09-11T07:28:59.212Z,20.06
2022-09-11T07:31:33.291Z,20.14
2022-09-11T07:34:03.012Z,20.15
2022-09-11T07:36:33.566Z,20.12
2022-09-11T07:39:03.929Z,20.39
2022-09-11T07:41:31.656Z,20.58
2022-09-11T07:44:00.436Z,20.78
2022-09-11T07:46:27.652Z,20.69
2022-09-11T07:49:01.397Z,20.54
2022-09-11T07:51:28.266Z,20.42
2022-09-11T07:53:59.461Z,20.49
2022-09-11T07:56:31.204Z,20.48
2022-09-11T07:59:07.061Z,20.57
2022-09-11T08:01:34.454Z,20.55
2022-09-11T08:04:05.899Z,20.38
2022-09-11T08:06:36.101Z,20.31
2022-09-11T08:09:11.041Z,20.50
2022-09-11T08:11:41.876Z,20.75
2022-09-11T08:14:11.710Z,20.86
2022-09-11T08:16:38.826Z,20.78
2022-09-11T08:19:09.591Z,21.06
2022-09-11T08:21:36.449Z,21.24
2022-09-11T08:24:07.247Z,21.25
2022-09-11T08:26:37.070Z,21.25
2022-09-11T08:29:06.820Z,21.26
2022-09-11T08:31:35.089Z,21.30
2022-09-11T08:34:05.080Z,21.58
2022-09-11T08:36:32.005Z,21.45
2022-09-11T08:39:02.757Z,21.58
2022-09-11T08:41:48.894Z,21.71
2022-09-11T08:44:28.472Z,21.90
2022-09-11T08:47:14.477Z,21.98
2022-09-11T08:49:51.524Z,21.89
2022-09-11T08:52:18.660Z,21.80
2022-09-11T08:54:48.118Z,21.99
2022-09-11T08:57:32.100Z,22.02
2022-09-11T09:00:35.874Z,22.06
2022-09-11T09:03:41.897Z,21.94
2022-09-11T09:06:26.327Z,22.00
2022-09-11T09:09:29.788Z,21.79
2022-09-11T09:12:43.356Z,21.91
2022-09-11T09:15:36.970Z,22.09
2022-09-11T09:18:16.783Z,22.51
2022-09-11T09:21:03.797Z,23.12
2022-09-11T09:23:46.393Z,23.83
2022-09-11T09:26:19.161Z,24.93
2022-09-11T09:28:50.721Z,25.36
2022-09-11T09:31:28.918Z,25.42
2022-09-11T09:34:09.750Z,24.76
2022-09-11T09:36:47.158Z,24.23
2022-09-11T09:39:17.022Z,24.23
2022-09-11T09:42:17.147Z,24.73
2022-09-11T09:45:19.215Z,24.84
2022-09-11T09:47:49.284Z,24.91
2022-09-11T09:50:43.929Z,25.82
2022-09-11T09:53:13.720Z,28.08
2022-09-11T09:55:41.282Z,30.86
2022-09-11T09:58:08.370Z,31.86
2022-09-11T10:00:38.164Z,33.52
2022-09-11T10:03:20.079Z,34.20
2022-09-11T10:05:54.805Z,32.37
2022-09-11T10:08:35.628Z,31.48
2022-09-11T10:11:04.116Z,30.69
2022-09-11T10:13:41.710Z,29.70
2022-09-11T10:16:32.763Z,27.72
2022-09-11T10:19:02.354Z,27.00
2022-09-11T10:21:35.908Z,26.35
2022-09-11T10:24:23.399Z,26.61
2022-09-11T10:26:58.348Z,29.40
2022-09-11T10:29:32.242Z,33.57
2022-09-11T10:32:03.654Z,36.75
2022-09-11T10:34:42.077Z,38.94
2022-09-11T10:37:34.317Z,40.37
2022-09-11T10:40:22.073Z,36.65
2022-09-11T10:42:52.414Z,36.31
2022-09-11T10:45:22.869Z,36.99
2022-09-11T10:47:49.778Z,33.92
2022-09-11T10:50:17.350Z,31.99
2022-09-11T10:53:09.155Z,31.02
2022-09-11T10:55:48.809Z,34.24
2022-09-11T10:58:24.434Z,35.44
2022-09-11T11:00:56.742Z,34.04
2022-09-11T11:03:30.531Z,33.66
2022-09-11T11:06:44.388Z,33.42
2022-09-11T11:09:39.082Z,31.90
2022-09-11T11:12:32.651Z,30.36
2022-09-11T11:15:40.200Z,28.94
2022-09-11T11:18:16.268Z,30.37
2022-09-11T11:21:16.741Z,34.46
2022-09-11T11:24:07.412Z,36.03
2022-09-11T11:26:59.677Z,33.22
2022-09-11T11:29:50.791Z,32.32
2022-09-11T11:32:51.728Z,34.57
2022-09-11T11:35:30.340Z,36.37
2022-09-11T11:38:15.249Z,35.28
2022-09-11T11:40:53.508Z,33.95
2022-09-11T11:43:31.539Z,32.27
2022-09-11T11:46:15.788Z,32.17
2022-09-11T11:48:53.256Z,31.13
2022-09-11T11:51:27.630Z,30.64
2022-09-11T11:54:17.395Z,29.86
2022-09-11T11:57:08.099Z,29.82
2022-09-11T11:59:53.861Z,31.34
2022-09-11T12:02:45.552Z,31.67
2022-09-11T12:05:24.244Z,34.71
2022-09-11T12:07:56.484Z,37.39
2022-09-11T12:10:38.654Z,36.62
2022-09-11T12:13:34.638Z,35.21
2022-09-11T12:16:19.969Z,36.83
2022-09-11T12:19:12.468Z,36.32
2022-09-11T12:22:12.094Z,38.72
2022-09-11T12:24:50.595Z,39.57
2022-09-11T12:27:37.978Z,38.83
2022-09-11T12:30:21.645Z,39.36
2022-09-11T12:33:02.733Z,39.76
2022-09-11T12:35:32.553Z,40.20
2022-09-11T12:38:13.370Z,38.99
2022-09-11T12:41:07.508Z,37.97
2022-09-11T12:43:37.388Z,38.07
2022-09-11T12:46:13.566Z,37.43
2022-09-11T12:49:18.348Z,38.58
2022-09-11T12:51:56.864Z,38.06
2022-09-11T12:54:27.094Z,37.92
2022-09-11T12:57:03.876Z,38.67
2022-09-11T12:59:38.581Z,40.77
2022-09-11T13:02:38.891Z,39.44
2022-09-11T13:05:36.392Z,38.52
2022-09-11T13:08:16.662Z,39.94
2022-09-11T13:10:44.209Z,41.15
2022-09-11T13:13:38.146Z,40.75
2022-09-11T13:16:25.799Z,39.92
2022-09-11T13:19:21.058Z,40.82
2022-09-11T13:21:56.732Z,41.15
2022-09-11T13:24:34.824Z,40.33
2022-09-11T13:27:13.141Z,40.14
2022-09-11T13:29:40.962Z,39.73
2022-09-11T13:32:19.868Z,36.95
2022-09-11T13:34:56.412Z,35.25
2022-09-11T13:37:38.398Z,34.20
2022-09-11T13:40:08.533Z,32.15
2022-09-11T13:42:36.419Z,31.04
2022-09-11T13:45:07.520Z,30.70
2022-09-11T13:47:42.086Z,30.14
2022-09-11T13:50:14.674Z,30.27
2022-09-11T13:52:46.777Z,32.30
2022-09-11T13:55:26.833Z,34.47
2022-09-11T13:58:04.528Z,33.64
2022-09-11T14:00:45.974Z,31.99
2022-09-11T14:03:33.539Z,30.75
2022-09-11T14:06:06.708Z,30.18
2022-09-11T14:08:40.268Z,29.80
2022-09-11T14:11:23.642Z,29.41
2022-09-11T14:14:05.970Z,28.93
2022-09-11T14:16:37.585Z,28.67
2022-09-11T14:19:14.284Z,28.41
2022-09-11T14:21:45.488Z,28.70
2022-09-11T14:24:36.411Z,28.49
2022-09-11T14:27:35.120Z,29.63
2022-09-11T14:30:23.207Z,29.77
2022-09-11T14:33:26.227Z,29.17
2022-09-11T14:36:07.950Z,28.87
2022-09-11T14:38:35.198Z,28.62
2022-09-11T14:41:07.194Z,28.16
2022-09-11T14:43:40.505Z,28.30
2022-09-11T14:46:12.436Z,28.18
2022-09-11T14:48:44.064Z,28.15
2022-09-11T14:51:13.608Z,28.51
2022-09-11T14:53:43.388Z,28.46
2022-09-11T14:56:13.839Z,28.40
2022-09-11T14:58:40.725Z,28.15
2022-09-11T15:01:09.222Z,28.15
2022-09-11T15:03:41.826Z,27.63
2022-09-11T15:06:17.816Z,27.56
2022-09-11T15:08:45.976Z,27.51
2022-09-11T15:11:13.548Z,27.32
2022-09-11T15:14:10.883Z,27.12
2022-09-11T15:16:32.101Z,26.80
2022-09-11T15:18:58.998Z,26.67
2022-09-11T15:21:26.157Z,26.71
2022-09-11T15:23:54.158Z,26.65
2022-09-11T15:26:21.321Z,26.47
2022-09-11T15:28:53.345Z,26.57
2022-09-11T15:31:20.543Z,26.56
2022-09-11T15:33:53.817Z,26.42
2022-09-11T15:36:26.442Z,26.26
2022-09-11T15:38:54.525Z,26.36
2022-09-11T15:41:25.403Z,26.28
2022-09-11T15:43:52.350Z,25.97
2022-09-11T15:46:21.105Z,25.86
2022-09-11T15:48:48.900Z,25.81
2022-09-11T15:51:19.299Z,25.80
2022-09-11T15:53:48.819Z,25.69
2022-09-11T15:56:25.700Z,25.76
2022-09-11T15:58:58.973Z,25.85
2022-09-11T16:01:32.418Z,25.89
2022-09-11T16:04:07.292Z,25.79
2022-09-11T16:06:40.165Z,25.91
2022-09-11T16:09:17.362Z,25.74
2022-09-11T16:11:44.807Z,25.84
2022-09-11T16:14:33.094Z,25.80
2022-09-11T16:17:02.431Z,25.72
2022-09-11T16:19:32.206Z,25.53
2022-09-11T16:22:04.232Z,25.42
2022-09-11T16:24:37.702Z,25.60
2022-09-11T16:27:10.276Z,25.40
2022-09-11T16:30:15.630Z,25.37
2022-09-11T16:32:37.458Z,25.23
2022-09-11T16:35:06.018Z,25.10
2022-09-11T16:37:34.182Z,25.00
2022-09-11T16:40:02.912Z,24.96
2022-09-11T16:42:30.243Z,24.89
2022-09-11T16:44:57.331Z,24.84
2022-09-11T16:47:24.432Z,24.87
2022-09-11T16:50:08.198Z,24.74
2022-09-11T16:52:39.313Z,24.60
2022-09-11T16:55:11.299Z,24.52
2022-09-11T16:57:38.865Z,24.50
2022-09-11T17:00:12.792Z,24.46
2022-09-11T17:02:39.979Z,24.22
2022-09-11T17:05:08.367Z,24.22
2022-09-11T17:07:38.450Z,24.13
2022-09-11T17:10:05.827Z,24.07
2022-09-11T17:12:32.869Z,23.63
2022-09-11T17:14:59.898Z,23.81
2022-09-11T17:17:26.956Z,23.76
2022-09-11T17:19:54.615Z,23.83
2022-09-11T17:22:21.425Z,23.78
2022-09-11T17:24:48.335Z,23.68
2022-09-11T17:27:15.400Z,23.55
2022-09-11T17:29:44.581Z,23.49
2022-09-11T17:32:27.694Z,23.45
2022-09-11T17:34:55.577Z,23.26
2022-09-11T17:37:25.896Z,23.13
2022-09-11T17:39:52.816Z,23.08
2022-09-11T17:42:27.463Z,23.11
2022-09-11T17:44:54.346Z,23.00
2022-09-11T17:47:21.642Z,23.00
2022-09-11T17:49:50.290Z,23.08
2022-09-11T17:52:21.585Z,22.84
2022-09-11T17:54:49.182Z,22.51
2022-09-11T17:57:16.168Z,22.66
2022-09-11T17:59:45.480Z,22.73
2022-09-11T18:02:16.710Z,22.88
2022-09-11T18:04:44.378Z,22.90
2022-09-11T18:07:11.708Z,22.76
2022-09-11T18:09:41.262Z,22.78
2022-09-11T18:12:11.428Z,22.60
2022-09-11T18:14:39.799Z,22.73
2022-09-11T18:17:10.860Z,22.61
2022-09-11T18:19:41.301Z,22.58
2022-09-11T18:22:09.785Z,22.57
2022-09-11T18:24:39.856Z,22.42
2022-09-11T18:27:10.581Z,22.38
2022-09-11T18:29:40.534Z,22.24
2022-09-11T18:32:09.889Z,22.34
2022-09-11T18:34:39.137Z,22.29
2022-09-11T18:37:08.648Z,22.31
2022-09-11T18:39:38.372Z,22.16
2022-09-11T18:42:07.513Z,22.20
2022-09-11T18:44:34.812Z,22.22
2022-09-11T18:47:01.772Z,22.11
2022-09-11T18:49:32.396Z,22.09
2022-09-11T18:52:04.770Z,22.07
2022-09-11T18:54:34.783Z,22.05
2022-09-11T18:57:03.560Z,22.00
2022-09-11T18:59:30.686Z,21.98
2022-09-11T19:02:00.087Z,21.86
2022-09-11T19:04:28.746Z,21.88
2022-09-11T19:07:00.298Z,21.98
2022-09-11T19:09:30.982Z,21.86
2022-09-11T19:12:02.271Z,21.77
2022-09-11T19:14:30.563Z,21.86
2022-09-11T19:17:00.424Z,21.90
2022-09-11T19:19:30.071Z,21.97
2022-09-11T19:22:00.312Z,21.89
2022-09-11T19:24:30.170Z,21.88
2022-09-11T19:27:00.197Z,21.99
2022-09-11T19:29:31.036Z,21.79
2022-09-11T19:31:57.995Z,21.84
2022-09-11T19:34:25.017Z,21.88
2022-09-11T19:36:54.200Z,21.91
2022-09-11T19:39:21.814Z,21.95
2022-09-11T19:41:51.956Z,22.08
2022-09-11T19:44:20.003Z,22.04
2022-09-11T19:46:49.896Z,21.99
2022-09-11T19:49:16.956Z,21.92
2022-09-11T19:51:46.514Z,21.72
2022-09-11T19:54:14.498Z,21.72
2022-09-11T19:56:42.523Z,21.46
2022-09-11T19:59:09.931Z,21.53
2022-09-11T20:01:37.441Z,21.43
2022-09-11T20:04:05.066Z,21.58
2022-09-11T20:06:38.199Z,21.43
2022-09-11T20:09:29.964Z,21.41
2022-09-11T20:12:00.480Z,21.43
2022-09-11T20:14:30.189Z,21.36
2022-09-11T20:16:57.126Z,21.41
2022-09-11T20:19:24.285Z,21.28
2022-09-11T20:21:51.210Z,21.22
2022-09-11T20:24:19.921Z,20.96
2022-09-11T20:26:46.807Z,20.91
2022-09-11T20:29:19.900Z,20.94
2022-09-11T20:31:51.150Z,20.71
2022-09-11T20:34:19.363Z,20.71
2022-09-11T20:36:47.380Z,20.70
2022-09-11T20:39:17.477Z,20.54
2022-09-11T20:41:44.732Z,20.62
2022-09-11T20:44:14.261Z,20.46
2022-09-11T20:46:43.619Z,20.44
2022-09-11T20:49:13.818Z,20.42
2022-09-11T20:51:40.835Z,20.38
2022-09-11T20:54:08.233Z,20.40
2022-09-11T20:56:35.635Z,20.33
2022-09-11T20:59:02.707Z,20.25
2022-09-11T21:01:36.812Z,20.18
2022-09-11T21:04:05.588Z,20.15
2022-09-11T21:06:35.637Z,20.18
2022-09-11T21:09:12.376Z,20.16
2022-09-11T21:11:42.142Z,20.07
2022-09-11T21:14:19.631Z,19.97
2022-09-11T21:16:48.958Z,20.03
2022-09-11T21:19:19.337Z,19.83
2022-09-11T21:21:46.285Z,19.80
2022-09-11T21:24:14.214Z,19.68
2022-09-11T21:26:46.836Z,19.76
2022-09-11T21:29:15.889Z,19.66
2022-09-11T21:31:42.905Z,19.64
2022-09-11T21:34:10.549Z,19.55
2022-09-11T21:36:39.978Z,19.57
2022-09-11T21:39:07.031Z,19.49
2022-09-11T21:41:34.303Z,19.38
2022-09-11T21:44:04.574Z,19.47
2022-09-11T21:46:34.209Z,19.42
2022-09-11T21:49:01.909Z,19.34
2022-09-11T21:51:29.045Z,19.42
2022-09-11T21:53:59.459Z,19.30
2022-09-11T21:56:34.073Z,19.13
2022-09-11T21:59:01.987Z,19.04
2022-09-11T22:01:31.653Z,18.93
2022-09-11T22:04:00.481Z,18.79
2022-09-11T22:06:29.179Z,18.85
2022-09-11T22:08:56.563Z,18.66
2022-09-11T22:11:23.949Z,18.53
2022-09-11T22:13:52.897Z,18.67
2022-09-11T22:16:20.683Z,18.61
2022-09-11T22:18:53.123Z,18.76
2022-09-11T22:21:20.232Z,18.83
2022-09-11T22:23:47.745Z,19.00
2022-09-11T22:26:19.843Z,18.94
2022-09-11T22:28:47.461Z,18.86
2022-09-11T22:31:20.292Z,18.81
2022-09-11T22:33:50.016Z,18.76
2022-09-11T22:36:26.213Z,18.71
2022-09-11T22:38:56.270Z,18.55
2022-09-11T22:41:23.775Z,18.42
2022-09-11T22:43:50.915Z,18.28
2022-09-11T22:46:20.896Z,18.06
2022-09-11T22:48:48.342Z,18.08
2022-09-11T22:51:15.810Z,18.16
2022-09-11T22:53:43.290Z,18.10
2022-09-11T22:56:14.275Z,17.91
2022-09-11T22:58:41.908Z,18.01
2022-09-11T23:01:12.352Z,18.12
2022-09-11T23:03:41.882Z,18.15
2022-09-11T23:06:32.675Z,18.08
2022-09-11T23:09:00.693Z,18.07
2022-09-11T23:11:28.932Z,18.02
2022-09-11T23:13:58.346Z,17.96
2022-09-11T23:16:30.558Z,18.01
2022-09-11T23:19:01.358Z,18.06
2022-09-11T23:21:30.438Z,18.02
2022-09-11T23:24:12.935Z,17.84
2022-09-11T23:26:40.386Z,17.77
2022-09-11T23:29:10.027Z,17.45
2022-09-11T23:31:36.989Z,17.48
2022-09-11T23:34:07.517Z,17.36
2022-09-11T23:36:36.393Z,17.35
2022-09-11T23:39:03.967Z,17.44
2022-09-11T23:41:33.445Z,17.44
2022-09-11T23:44:13.786Z,17.33
2022-09-11T23:46:40.751Z,17.40
2022-09-11T23:49:07.726Z,17.50
2022-09-11T23:51:37.919Z,17.44
2022-09-11T23:54:07.730Z,17.28
2022-09-11T23:56:35.408Z,17.27
2022-09-11T23:59:02.454Z,17.23
